Terminal Aerodrome Forecast
Issued by NWS Lake Charles, LA

Home | Current Version | Previous Version | Text Only | Print | Product List | Glossary On
Versions: 1 2 3 4 5 6 7 8 9 10 11 12 13 14 15 16
000
FTUS44 KLCH 301700
TAFBPT
TAF
KBPT 301738Z 3018/3118 04010KT P6SM SCT200 BKN250
     FM310000 07007KT P6SM BKN200
     FM311500 10012KT P6SM OVC200=

USA.gov is the U.S. government's official web portal to all federal, state and local government web resources and services.